Terminal Aerodrome Forecast
Issued by NWS Shreveport, LA

Home | Current Version | Previous Version | Text Only | Print | Product List | Glossary On
Versions: 1 2 3 4 5 6 7 8 9 10 11 12 13 14
000
FTUS44 KSHV 292300
TAFELD
TAF
KELD 292340Z 3000/3024 04005KT P6SM SCT060
     FM300200 VRB03KT P6SM SCT250
     FM300600 VRB03KT P6SM BKN250
     FM301500 15005KT P6SM BKN150 BKN250
     FM301700 13005KT P6SM FEW040 BKN150 BKN250=

USA.gov is the U.S. government's official web portal to all federal, state and local government web resources and services.